createdAt,value
2019-04-03T00:00:24.532Z,35.63
2019-04-03T00:03:04.297Z,33.67
2019-04-03T00:05:44.536Z,32.13
2019-04-03T00:08:24.291Z,34.78
2019-04-03T00:11:02.737Z,34.83
2019-04-03T00:13:42.254Z,34.08
2019-04-03T00:16:22.989Z,35.78
2019-04-03T00:19:02.765Z,37.88
2019-04-03T00:21:43.866Z,38.78
2019-04-03T00:24:22.533Z,40.92
2019-04-03T00:27:02.573Z,35.78
2019-04-03T00:29:40.107Z,33.55
2019-04-03T00:32:19.693Z,38.40
2019-04-03T00:34:58.386Z,37.23
2019-04-03T00:37:37.526Z,45.08
2019-04-03T00:40:16.228Z,33.28
2019-04-03T00:42:54.872Z,36.95
2019-04-03T00:45:32.745Z,35.20
2019-04-03T00:48:11.726Z,34.10
2019-04-03T00:50:50.899Z,33.20
2019-04-03T00:53:28.781Z,39.20
2019-04-03T00:56:07.507Z,38.90
2019-04-03T00:58:48.133Z,42.73
2019-04-03T01:01:26.525Z,35.65
2019-04-03T01:04:05.046Z,32.58
2019-04-03T01:06:43.735Z,45.80
2019-04-03T01:09:23.537Z,41.08
2019-04-03T01:12:01.524Z,37.28
2019-04-03T01:14:39.500Z,31.35
2019-04-03T01:17:17.476Z,31.60
2019-04-03T01:19:57.129Z,26.00
2019-04-03T01:22:37.341Z,27.98
2019-04-03T01:25:15.761Z,23.50
2019-04-03T01:27:54.596Z,31.93
2019-04-03T01:30:33.357Z,29.63
2019-04-03T01:33:11.634Z,27.35
2019-04-03T01:35:49.963Z,25.23
2019-04-03T01:38:28.079Z,27.02
2019-04-03T01:41:07.179Z,32.28
2019-04-03T01:43:45.625Z,28.12
2019-04-03T01:46:24.326Z,25.40
2019-04-03T01:49:02.394Z,23.15
2019-04-03T01:51:41.700Z,22.15
2019-04-03T01:54:21.976Z,19.45
2019-04-03T01:57:03.095Z,18.62
2019-04-03T01:59:42.068Z,20.23
2019-04-03T02:02:20.525Z,19.07
2019-04-03T02:04:58.720Z,19.55
2019-04-03T02:07:39.462Z,18.60
2019-04-03T02:10:22.269Z,24.55
2019-04-03T02:13:01.139Z,20.37
2019-04-03T02:15:39.469Z,18.15
2019-04-03T02:18:17.893Z,16.90
2019-04-03T02:20:57.761Z,16.48
2019-04-03T02:23:37.892Z,18.25
2019-04-03T02:26:16.748Z,18.75
2019-04-03T02:28:55.189Z,14.75
2019-04-03T02:31:33.259Z,17.32
2019-04-03T02:34:12.113Z,13.62
2019-04-03T02:36:53.330Z,18.17
2019-04-03T02:39:32.148Z,21.90
2019-04-03T02:42:21.678Z,17.10
2019-04-03T02:45:00.809Z,14.00
2019-04-03T02:47:40.297Z,16.85
2019-04-03T02:50:23.332Z,13.43
2019-04-03T02:53:01.345Z,19.45
2019-04-03T02:55:41.003Z,14.83
2019-04-03T02:58:22.240Z,16.07
2019-04-03T03:01:00.486Z,12.05
2019-04-03T03:03:39.291Z,11.55
2019-04-03T03:06:19.415Z,8.68
2019-04-03T03:08:57.820Z,10.00
2019-04-03T03:11:37.114Z,12.75
2019-04-03T03:14:16.048Z,12.93
2019-04-03T03:16:55.598Z,10.43
2019-04-03T03:19:34.155Z,16.20
2019-04-03T03:22:17.200Z,13.30
2019-04-03T03:24:54.379Z,11.88
2019-04-03T03:27:34.866Z,8.83
2019-04-03T03:30:33.245Z,11.10
2019-04-03T03:33:19.408Z,9.38
2019-04-03T03:35:40.363Z,11.33
2019-04-03T03:38:14.033Z,10.82
2019-04-03T03:40:51.862Z,11.35
2019-04-03T03:43:30.521Z,9.58
2019-04-03T03:46:09.065Z,12.30
2019-04-03T03:48:48.135Z,13.35
2019-04-03T03:51:30.092Z,12.85
2019-04-03T03:54:06.564Z,10.75
2019-04-03T03:56:46.079Z,13.70
2019-04-03T03:59:27.419Z,11.78
2019-04-03T04:02:06.568Z,16.35
2019-04-03T04:04:48.134Z,13.10
2019-04-03T04:07:25.075Z,21.57
2019-04-03T04:10:04.830Z,21.15
2019-04-03T04:12:43.068Z,18.57
2019-04-03T04:15:22.253Z,26.42
2019-04-03T04:18:00.585Z,23.35
2019-04-03T04:20:40.470Z,27.98
2019-04-03T04:23:18.640Z,30.82
2019-04-03T04:25:58.984Z,30.10
2019-04-03T04:28:40.207Z,31.65
2019-04-03T04:31:19.271Z,27.58
2019-04-03T04:33:58.799Z,21.25
2019-04-03T04:36:38.152Z,19.00
2019-04-03T04:39:16.129Z,20.27
2019-04-03T04:41:55.152Z,18.60
2019-04-03T04:44:33.086Z,20.30
2019-04-03T04:47:14.570Z,20.08
2019-04-03T04:49:51.730Z,18.32
2019-04-03T04:52:31.283Z,23.45
2019-04-03T04:55:10.894Z,20.88
2019-04-03T04:57:49.479Z,21.62
2019-04-03T05:00:29.463Z,25.00
2019-04-03T05:03:07.730Z,23.12
2019-04-03T05:05:47.859Z,21.80
2019-04-03T05:08:26.511Z,26.25
2019-04-03T05:11:05.573Z,25.35
2019-04-03T05:13:46.776Z,34.27
2019-04-03T05:16:25.054Z,30.90
2019-04-03T05:19:10.685Z,34.80
2019-04-03T05:21:43.300Z,35.90
2019-04-03T05:24:21.621Z,30.72
2019-04-03T05:27:01.061Z,30.43
2019-04-03T05:29:40.374Z,26.05
2019-04-03T05:32:18.780Z,26.17
2019-04-03T05:34:59.440Z,28.12
2019-04-03T05:37:40.313Z,30.15
2019-04-03T05:40:19.093Z,29.37
2019-04-03T05:43:00.176Z,25.00
2019-04-03T05:45:41.054Z,23.77
2019-04-03T05:48:19.382Z,22.45
2019-04-03T05:50:58.542Z,28.75
2019-04-03T05:53:37.873Z,24.47
2019-04-03T05:56:17.292Z,28.83
2019-04-03T05:58:57.217Z,25.77
2019-04-03T06:01:35.986Z,18.57
2019-04-03T06:04:15.588Z,16.50
2019-04-03T06:07:01.917Z,15.63
2019-04-03T06:10:08.629Z,17.42
2019-04-03T06:13:11.209Z,11.45
2019-04-03T06:27:55.999Z,13.58
2019-04-03T06:30:35.079Z,14.20
2019-04-03T06:33:13.839Z,11.53
2019-04-03T06:35:52.083Z,11.20
2019-04-03T06:38:30.399Z,14.75
2019-04-03T06:41:09.146Z,13.62
2019-04-03T06:43:50.410Z,12.45
2019-04-03T06:46:29.084Z,16.85
2019-04-03T06:49:08.502Z,11.35
2019-04-03T06:51:48.881Z,13.68
2019-04-03T06:54:26.866Z,12.15
2019-04-03T06:57:04.603Z,15.65
2019-04-03T06:59:42.987Z,24.12
2019-04-03T07:02:22.193Z,17.02
2019-04-03T07:05:02.821Z,15.88
2019-04-03T07:07:40.619Z,15.45
2019-04-03T07:10:25.649Z,11.95
2019-04-03T07:12:59.265Z,13.93
2019-04-03T07:15:37.717Z,14.47
2019-04-03T07:18:15.916Z,13.90
2019-04-03T07:20:54.513Z,17.05
2019-04-03T07:23:32.827Z,14.55
2019-04-03T07:26:11.917Z,10.72
2019-04-03T07:28:50.865Z,12.05
2019-04-03T07:31:30.518Z,10.58
2019-04-03T07:34:09.726Z,10.60
2019-04-03T07:36:47.850Z,12.60
2019-04-03T07:39:25.631Z,12.07
2019-04-03T07:42:04.820Z,9.70
2019-04-03T07:44:43.123Z,16.65
2019-04-03T07:47:21.576Z,13.90
2019-04-03T07:49:59.958Z,12.78
2019-04-03T07:52:38.541Z,12.63
2019-04-03T07:55:16.945Z,10.75
2019-04-03T07:57:55.904Z,13.25
2019-04-03T08:00:34.355Z,7.30
2019-04-03T08:03:13.242Z,15.83
2019-04-03T08:05:54.062Z,11.93
2019-04-03T08:08:31.545Z,15.72
2019-04-03T08:11:09.335Z,14.40
2019-04-03T08:13:48.164Z,10.90
2019-04-03T08:16:26.310Z,14.15
2019-04-03T08:19:07.575Z,12.53
2019-04-03T08:21:43.996Z,12.98
2019-04-03T08:24:23.579Z,14.55
2019-04-03T08:27:02.019Z,11.08
2019-04-03T08:29:40.888Z,11.78
2019-04-03T08:32:18.960Z,13.98
2019-04-03T08:34:57.751Z,14.45
2019-04-03T08:37:36.817Z,20.27
2019-04-03T08:40:15.174Z,12.58
2019-04-03T08:42:53.449Z,13.65
2019-04-03T08:45:31.920Z,13.48
2019-04-03T08:48:09.261Z,17.70
2019-04-03T08:50:47.107Z,12.23
2019-04-03T08:53:24.891Z,9.05
2019-04-03T08:56:04.176Z,11.50
2019-04-03T08:58:42.603Z,8.65
2019-04-03T09:01:22.500Z,11.90
2019-04-03T09:04:00.885Z,11.33
2019-04-03T09:06:39.755Z,9.63
2019-04-03T09:09:18.406Z,16.95
2019-04-03T09:11:56.825Z,10.20
2019-04-03T09:14:34.898Z,9.80
2019-04-03T09:17:13.515Z,12.00
2019-04-03T09:19:51.916Z,8.63
2019-04-03T09:22:30.007Z,15.58
2019-04-03T09:25:07.711Z,7.42
2019-04-03T09:27:47.088Z,12.45
2019-04-03T09:30:27.193Z,8.90
2019-04-03T09:33:05.681Z,11.88
2019-04-03T09:35:44.075Z,12.78
2019-04-03T09:38:23.147Z,11.08
2019-04-03T09:41:02.962Z,7.40
2019-04-03T09:43:41.440Z,11.15
2019-04-03T09:46:19.255Z,8.43
2019-04-03T09:48:58.531Z,8.98
2019-04-03T09:51:37.175Z,11.88
2019-04-03T09:54:15.868Z,9.95
2019-04-03T09:57:03.010Z,8.75
2019-04-03T09:59:33.809Z,9.68
2019-04-03T10:02:12.441Z,10.23
2019-04-03T10:04:51.145Z,8.88
2019-04-03T10:07:31.175Z,11.22
2019-04-03T10:10:10.699Z,17.45
2019-04-03T10:12:49.771Z,19.50
2019-04-03T10:15:30.321Z,11.97
2019-04-03T10:18:10.131Z,10.98
2019-04-03T10:20:49.516Z,14.53
2019-04-03T10:23:29.074Z,10.63
2019-04-03T10:26:08.744Z,20.48
2019-04-03T10:28:47.787Z,12.58
2019-04-03T10:31:27.254Z,14.43
2019-04-03T10:34:05.286Z,14.53
2019-04-03T10:36:43.850Z,15.10
2019-04-03T10:39:22.134Z,15.85
2019-04-03T10:42:01.320Z,14.20
2019-04-03T10:44:40.598Z,12.85
2019-04-03T10:47:24.683Z,17.85
2019-04-03T10:49:59.087Z,12.40
2019-04-03T10:52:39.149Z,15.93
2019-04-03T10:55:18.199Z,16.70
2019-04-03T10:57:56.396Z,15.38
2019-04-03T11:00:34.813Z,16.55
2019-04-03T11:03:13.720Z,9.83
2019-04-03T11:05:51.720Z,13.78
2019-04-03T11:08:30.325Z,11.65
2019-04-03T11:11:08.495Z,8.35
2019-04-03T11:13:48.544Z,12.20
2019-04-03T11:16:27.477Z,13.30
2019-04-03T11:19:07.263Z,10.60
2019-04-03T11:21:45.563Z,11.65
2019-04-03T11:24:24.509Z,13.55
2019-04-03T11:27:02.576Z,10.80
2019-04-03T11:29:43.298Z,11.60
2019-04-03T11:32:23.274Z,12.17
2019-04-03T11:35:03.161Z,12.75
2019-04-03T11:37:41.741Z,14.07
2019-04-03T11:40:19.628Z,15.65
2019-04-03T11:42:57.849Z,11.30
2019-04-03T11:45:36.626Z,13.03
2019-04-03T11:48:17.234Z,12.68
2019-04-03T11:50:56.589Z,17.87
2019-04-03T11:53:35.991Z,17.10
2019-04-03T11:56:14.651Z,13.53
2019-04-03T11:58:53.080Z,13.58
2019-04-03T12:01:31.489Z,14.75
2019-04-03T12:04:12.574Z,13.65
2019-04-03T12:06:52.016Z,16.55
2019-04-03T12:09:32.376Z,14.55
2019-04-03T12:12:11.247Z,16.60
2019-04-03T12:14:50.139Z,15.58
2019-04-03T12:17:31.096Z,14.58
2019-04-03T12:22:48.664Z,28.38
2019-04-03T12:25:27.775Z,27.67
2019-04-03T12:28:07.350Z,32.13
2019-04-03T12:30:45.913Z,25.65
2019-04-03T12:33:28.575Z,16.10
2019-04-03T12:36:07.327Z,20.77
2019-04-03T12:38:46.649Z,19.12
2019-04-03T12:41:26.625Z,18.52
2019-04-03T12:44:05.046Z,17.35
2019-04-03T12:46:43.908Z,17.80
2019-04-03T12:49:22.916Z,14.23
2019-04-03T12:52:03.655Z,14.87
2019-04-03T12:54:43.958Z,13.45
2019-04-03T12:57:22.418Z,13.93
2019-04-03T13:00:02.465Z,16.42
2019-04-03T13:05:22.484Z,15.95
2019-04-03T13:08:00.934Z,12.23
2019-04-03T13:10:42.810Z,13.03
2019-04-03T13:13:20.810Z,14.95
2019-04-03T13:15:59.541Z,16.85
2019-04-03T13:18:37.726Z,16.45
2019-04-03T13:21:16.946Z,16.90
2019-04-03T13:23:56.233Z,16.75
2019-04-03T13:26:34.189Z,13.85
2019-04-03T13:29:12.376Z,14.20
2019-04-03T13:31:51.698Z,11.12
2019-04-03T13:34:32.383Z,13.48
2019-04-03T13:37:11.125Z,11.73
2019-04-03T13:39:49.403Z,15.15
2019-04-03T13:42:31.184Z,15.48
2019-04-03T13:45:09.359Z,11.27
2019-04-03T13:47:48.166Z,15.03
2019-04-03T13:50:27.209Z,15.65
2019-04-03T13:53:06.367Z,15.03
2019-04-03T13:55:45.051Z,13.05
2019-04-03T13:58:23.315Z,13.83
2019-04-03T14:01:03.125Z,13.80
2019-04-03T14:03:42.617Z,14.33
2019-04-03T14:06:21.271Z,12.53
2019-04-03T14:08:59.635Z,16.00
2019-04-03T14:11:38.232Z,21.05
2019-04-03T14:14:17.949Z,17.60
2019-04-03T14:16:56.506Z,19.90
2019-04-03T14:19:43.275Z,16.37
2019-04-03T14:22:14.340Z,17.73
2019-04-03T14:24:52.903Z,20.65
2019-04-03T14:27:32.015Z,16.57
2019-04-03T14:30:11.912Z,18.50
2019-04-03T14:32:52.537Z,19.37
2019-04-03T14:35:47.449Z,19.10
2019-04-03T14:38:11.925Z,16.70
2019-04-03T14:40:50.555Z,22.35
2019-04-03T14:43:28.707Z,23.75
2019-04-03T14:46:08.508Z,21.85
2019-04-03T14:48:48.467Z,27.05
2019-04-03T14:51:27.664Z,24.63
2019-04-03T14:54:08.235Z,25.08
2019-04-03T14:56:46.954Z,29.20
2019-04-03T14:59:26.002Z,20.97
2019-04-03T15:02:06.319Z,28.67
2019-04-03T15:04:44.297Z,24.90
2019-04-03T15:07:23.366Z,31.70
2019-04-03T15:10:01.481Z,23.70
2019-04-03T15:12:44.521Z,20.88
2019-04-03T15:15:22.893Z,22.10
2019-04-03T15:18:01.038Z,23.50
2019-04-03T15:20:39.169Z,23.98
2019-04-03T15:23:17.527Z,21.48
2019-04-03T15:25:55.815Z,20.17
2019-04-03T15:28:34.551Z,20.08
2019-04-03T15:31:14.302Z,19.77
2019-04-03T15:33:54.854Z,20.30
2019-04-03T15:36:34.928Z,20.60
2019-04-03T15:39:18.691Z,18.37
2019-04-03T15:41:56.713Z,18.55
2019-04-03T15:44:35.415Z,19.10
2019-04-03T15:47:17.137Z,18.62
2019-04-03T15:49:53.616Z,22.35
2019-04-03T15:52:31.841Z,19.50
2019-04-03T15:55:10.631Z,21.85
2019-04-03T15:57:50.061Z,22.10
2019-04-03T16:00:30.590Z,20.85
2019-04-03T16:03:09.513Z,18.17
2019-04-03T16:05:47.723Z,19.62
2019-04-03T16:08:26.513Z,24.40
2019-04-03T16:11:05.277Z,22.80
2019-04-03T16:13:42.902Z,24.92
2019-04-03T16:16:20.929Z,22.73
2019-04-03T16:18:59.502Z,23.12
2019-04-03T16:21:39.514Z,23.32
2019-04-03T16:24:18.009Z,18.50
2019-04-03T16:26:57.459Z,21.45
2019-04-03T16:29:36.254Z,25.92
2019-04-03T16:32:16.393Z,26.65
2019-04-03T16:34:56.951Z,21.95
2019-04-03T16:37:36.068Z,21.40
2019-04-03T16:40:17.183Z,22.67
2019-04-03T16:42:56.543Z,24.05
2019-04-03T16:45:37.215Z,21.35
2019-04-03T16:48:17.794Z,23.90
2019-04-03T16:53:33.173Z,24.07
2019-04-03T16:56:11.776Z,22.07
2019-04-03T16:58:50.118Z,23.38
2019-04-03T17:01:29.277Z,24.30
2019-04-03T17:04:09.310Z,21.30
2019-04-03T17:06:48.927Z,22.77
2019-04-03T17:09:28.113Z,33.05
2019-04-03T17:12:06.329Z,60.12
2019-04-03T17:14:44.600Z,35.17
2019-04-03T17:17:22.693Z,21.00
2019-04-03T17:20:01.015Z,23.50
2019-04-03T17:22:40.907Z,21.75
2019-04-03T17:25:19.746Z,21.07
2019-04-03T17:27:59.424Z,25.30
2019-04-03T17:30:38.219Z,28.25
2019-04-03T17:33:16.131Z,22.77
2019-04-03T17:35:54.829Z,21.05
2019-04-03T17:38:34.581Z,21.97
2019-04-03T17:41:14.860Z,18.90
2019-04-03T17:43:54.233Z,25.72
2019-04-03T17:46:35.748Z,23.00
2019-04-03T17:49:14.915Z,24.55
2019-04-03T17:51:54.566Z,17.80
2019-04-03T17:54:32.711Z,21.55
2019-04-03T17:57:11.908Z,24.55
2019-04-03T17:59:51.211Z,27.90
2019-04-03T18:02:31.882Z,25.08
2019-04-03T18:05:10.695Z,27.85
2019-04-03T18:07:50.330Z,25.43
2019-04-03T18:10:30.622Z,23.87
2019-04-03T18:13:09.349Z,29.57
2019-04-03T18:15:47.759Z,26.05
2019-04-03T18:18:26.825Z,27.85
2019-04-03T18:21:12.943Z,21.48
2019-04-03T18:23:52.671Z,25.90
2019-04-03T18:26:32.460Z,28.40
2019-04-03T18:29:11.537Z,21.30
2019-04-03T18:31:50.331Z,23.32
2019-04-03T18:34:28.371Z,24.75
2019-04-03T18:37:07.408Z,23.95
2019-04-03T18:39:46.883Z,26.05
2019-04-03T18:42:25.802Z,21.20
2019-04-03T18:45:04.220Z,27.27
2019-04-03T18:47:45.895Z,25.05
2019-04-03T18:50:23.057Z,26.27
2019-04-03T18:53:01.044Z,23.00
2019-04-03T18:55:39.562Z,25.17
2019-04-03T18:58:17.965Z,25.90
2019-04-03T19:00:56.630Z,23.55
2019-04-03T19:03:35.026Z,22.95
2019-04-03T19:06:14.109Z,27.82
2019-04-03T19:08:52.298Z,23.05
2019-04-03T19:11:34.148Z,28.70
2019-04-03T19:14:12.004Z,22.93
2019-04-03T19:16:52.827Z,24.40
2019-04-03T19:19:29.967Z,31.52
2019-04-03T19:22:09.041Z,25.15
2019-04-03T19:24:47.101Z,35.60
2019-04-03T19:27:25.137Z,31.95
2019-04-03T19:30:06.755Z,34.23
2019-04-03T19:32:44.790Z,36.55
2019-04-03T19:35:22.856Z,40.88
2019-04-03T19:38:01.125Z,41.63
2019-04-03T19:40:41.144Z,51.05
2019-04-03T19:43:20.334Z,67.27
2019-04-03T19:45:59.525Z,66.55
2019-04-03T19:48:38.609Z,60.58
2019-04-03T19:51:16.853Z,56.90
2019-04-03T19:53:59.603Z,47.43
2019-04-03T19:56:35.486Z,44.20
2019-04-03T19:59:13.595Z,42.40
2019-04-03T20:01:51.444Z,42.90
2019-04-03T20:04:29.846Z,37.73
2019-04-03T20:07:07.369Z,38.45
2019-04-03T20:09:45.906Z,38.90
2019-04-03T20:12:24.051Z,37.20
2019-04-03T20:15:02.722Z,38.80
2019-04-03T20:17:41.446Z,33.58
2019-04-03T20:20:19.515Z,37.13
2019-04-03T20:22:57.675Z,39.80
2019-04-03T20:25:39.898Z,39.20
2019-04-03T20:28:18.523Z,36.33
2019-04-03T20:30:57.367Z,40.58
2019-04-03T20:33:35.498Z,40.43
2019-04-03T20:36:16.462Z,38.00
2019-04-03T20:38:53.470Z,38.75
2019-04-03T20:41:32.945Z,42.48
2019-04-03T20:44:12.005Z,43.28
2019-04-03T20:46:50.979Z,41.95
2019-04-03T20:49:29.933Z,44.55
2019-04-03T20:52:10.874Z,37.63
2019-04-03T20:54:47.920Z,41.98
2019-04-03T20:57:27.794Z,42.80
2019-04-03T21:00:06.258Z,38.92
2019-04-03T21:02:45.983Z,43.05
2019-04-03T21:05:24.490Z,41.08
2019-04-03T21:08:03.751Z,43.08
2019-04-03T21:10:42.167Z,45.20
2019-04-03T21:13:20.311Z,43.25
2019-04-03T21:15:58.395Z,44.33
2019-04-03T21:18:37.345Z,43.23
2019-04-03T21:21:17.010Z,39.98
2019-04-03T21:23:55.432Z,40.25
2019-04-03T21:26:33.521Z,39.45
2019-04-03T21:29:12.588Z,41.50
2019-04-03T21:31:50.325Z,38.02
2019-04-03T21:34:28.458Z,50.20
2019-04-03T21:37:07.637Z,44.77
2019-04-03T21:39:47.457Z,43.10
2019-04-03T21:42:26.981Z,42.55
2019-04-03T21:45:07.577Z,41.68
2019-04-03T21:47:45.550Z,39.88
2019-04-03T21:50:24.621Z,43.10
2019-04-03T21:53:04.075Z,44.03
2019-04-03T21:55:42.659Z,41.73
2019-04-03T21:58:21.984Z,46.50
2019-04-03T22:01:28.421Z,46.70
2019-04-03T22:04:06.365Z,46.68
2019-04-03T22:06:44.539Z,47.20
2019-04-03T22:09:22.437Z,44.65
2019-04-03T22:12:00.823Z,43.70
2019-04-03T22:14:38.839Z,53.20
2019-04-03T22:17:17.192Z,43.78
2019-04-03T22:19:58.303Z,48.00
2019-04-03T22:22:35.632Z,45.05
2019-04-03T22:25:14.791Z,45.60
2019-04-03T22:27:53.280Z,48.78
2019-04-03T22:30:31.233Z,49.25
2019-04-03T22:33:10.346Z,51.23
2019-04-03T22:35:48.491Z,44.25
2019-04-03T22:38:28.415Z,46.05
2019-04-03T22:41:07.040Z,43.00
2019-04-03T22:43:46.653Z,45.48
2019-04-03T22:46:24.692Z,44.55
2019-04-03T22:49:03.180Z,50.03
2019-04-03T22:51:41.768Z,46.65
2019-04-03T22:54:20.873Z,45.08
2019-04-03T22:57:00.324Z,45.73
2019-04-03T22:59:39.365Z,42.20
2019-04-03T23:02:17.539Z,47.90
2019-04-03T23:04:56.761Z,45.73
2019-04-03T23:07:34.955Z,46.90
2019-04-03T23:10:13.248Z,48.35
2019-04-03T23:12:51.098Z,52.50
2019-04-03T23:15:30.307Z,46.92
2019-04-03T23:18:08.456Z,46.18
2019-04-03T23:20:46.050Z,48.98
2019-04-03T23:23:27.099Z,48.35
2019-04-03T23:26:04.780Z,48.63
2019-04-03T23:28:44.045Z,43.42
2019-04-03T23:31:22.336Z,51.98
2019-04-03T23:34:00.695Z,50.92
2019-04-03T23:36:39.689Z,50.90
2019-04-03T23:39:17.945Z,51.30
2019-04-03T23:41:56.621Z,56.18
2019-04-03T23:44:35.539Z,51.35
2019-04-03T23:47:15.084Z,49.45
2019-04-03T23:49:54.513Z,46.23
2019-04-03T23:52:32.685Z,49.63
2019-04-03T23:55:10.702Z,55.80
2019-04-03T23:57:49.701Z,52.85
